Ramer, Alabama
Current Conditions -  °F | °C
As of 4:53 PM on Wednesday 22 Oct 2014 (Local Time) from KTOI Reporting Station
Clear Clear  
Wind Chill: 72°   Ceiling: Unl
Heat Index: 72°   Visibility: 10mi
Dew Point: 42°   Wind: 7mph
Humidity: 34%   Direction: 10°N
Pressure: 30.06"   Gusts: NA
Location:  32.05°N, 86.22°W
Report Text: KTOI 222153Z AUTO 01006KT 10SM CLR 22/06 A3006 RMK AO2 SLP176 T02220056
Loading
Personal Weather Stations






























Interactive Weather Map
Tropical Storm Tracking
New forecast layout! Learn more

10-Day Weather Forecast

Advertisements
Track Severe Weather on mobile